createdAt,value
2022-11-29T00:00:40.791Z,44.45
2022-11-29T00:01:40.786Z,51.56
2022-11-29T00:02:40.826Z,44.61
2022-11-29T00:03:40.795Z,40.89
2022-11-29T00:04:40.843Z,40.82
2022-11-29T00:05:40.756Z,40.90
2022-11-29T00:06:40.752Z,40.89
2022-11-29T00:07:40.791Z,47.87
2022-11-29T00:08:40.757Z,40.95
2022-11-29T00:09:40.716Z,41.58
2022-11-29T00:10:41.714Z,45.16
2022-11-29T00:11:40.708Z,40.83
2022-11-29T00:12:40.701Z,40.93
2022-11-29T00:13:40.725Z,44.15
2022-11-29T00:14:40.690Z,43.64
2022-11-29T00:15:40.675Z,54.34
2022-11-29T00:16:40.694Z,47.17
2022-11-29T00:17:40.665Z,42.00
2022-11-29T00:18:40.680Z,49.82
2022-11-29T00:19:40.647Z,46.73
2022-11-29T00:20:40.638Z,51.56
2022-11-29T00:21:40.623Z,46.33
2022-11-29T00:22:40.615Z,45.78
2022-11-29T00:23:40.643Z,40.83
2022-11-29T00:24:40.609Z,40.65
2022-11-29T00:25:40.599Z,44.29
2022-11-29T00:26:40.597Z,45.72
2022-11-29T00:27:40.584Z,43.50
2022-11-29T00:28:40.591Z,40.78
2022-11-29T00:29:40.562Z,43.60
2022-11-29T00:30:40.608Z,51.47
2022-11-29T00:31:40.548Z,47.92
2022-11-29T00:35:14.775Z,40.95
2022-11-29T00:36:14.773Z,40.70
2022-11-29T00:37:14.759Z,43.60
2022-11-29T00:38:14.750Z,40.83
2022-11-29T00:39:14.768Z,46.75
2022-11-29T00:40:14.737Z,46.31
2022-11-29T00:41:14.726Z,43.22
2022-11-29T00:42:14.723Z,46.30
2022-11-29T00:43:14.722Z,45.22
2022-11-29T00:44:19.880Z,49.65
2022-11-29T00:45:15.703Z,53.60
2022-11-29T00:46:14.784Z,43.80
2022-11-29T00:47:15.867Z,45.98
2022-11-29T00:48:15.821Z,43.36
2022-11-29T00:49:15.843Z,43.33
2022-11-29T00:50:15.811Z,41.45
2022-11-29T00:51:15.800Z,57.50
2022-11-29T00:52:15.794Z,47.30
2022-11-29T00:53:15.785Z,41.16
2022-11-29T00:54:15.812Z,45.95
2022-11-29T00:55:15.776Z,58.19
2022-11-29T00:56:15.764Z,45.09
2022-11-29T00:57:15.756Z,51.33
2022-11-29T00:58:15.751Z,43.34
2022-11-29T00:59:15.768Z,43.10
2022-11-29T01:00:15.748Z,43.59
2022-11-29T01:01:15.802Z,45.03
2022-11-29T01:02:15.761Z,48.51
2022-11-29T01:03:15.726Z,43.80
2022-11-29T01:04:15.729Z,45.81
2022-11-29T01:05:15.702Z,43.68
2022-11-29T01:06:15.693Z,46.01
2022-11-29T01:07:15.752Z,49.55
2022-11-29T01:08:15.690Z,52.97
2022-11-29T01:09:15.709Z,47.83
2022-11-29T01:10:15.666Z,44.07
2022-11-29T01:11:15.657Z,46.11
2022-11-29T01:12:15.646Z,44.13
2022-11-29T01:13:15.639Z,47.15
2022-11-29T01:14:15.658Z,48.51
2022-11-29T01:15:15.637Z,44.01
2022-11-29T01:16:15.681Z,48.53
2022-11-29T01:17:15.613Z,43.46
2022-11-29T01:18:15.602Z,49.92
2022-11-29T01:19:15.632Z,46.75
2022-11-29T01:20:15.581Z,48.36
2022-11-29T01:21:15.599Z,46.55
2022-11-29T01:22:15.568Z,44.61
2022-11-29T01:23:15.569Z,46.61
2022-11-29T01:24:15.611Z,42.38
2022-11-29T01:25:15.547Z,49.84
2022-11-29T01:26:15.549Z,41.90
2022-11-29T01:27:15.550Z,41.76
2022-11-29T01:28:15.526Z,41.81
2022-11-29T01:29:15.546Z,42.35
2022-11-29T01:30:15.504Z,46.31
2022-11-29T01:31:15.568Z,41.79
2022-11-29T01:32:15.491Z,41.93
2022-11-29T01:33:15.483Z,56.04
2022-11-29T01:34:15.507Z,43.83
2022-11-29T01:35:15.468Z,42.45
2022-11-29T01:36:15.465Z,42.70
2022-11-29T01:37:15.450Z,41.55
2022-11-29T01:38:15.451Z,41.64
2022-11-29T01:39:16.466Z,46.69
2022-11-29T01:40:15.429Z,47.29
2022-11-29T01:41:15.430Z,41.87
2022-11-29T01:42:15.429Z,51.22
2022-11-29T01:43:15.415Z,41.57
2022-11-29T01:44:15.435Z,42.71
2022-11-29T01:45:15.394Z,50.90
2022-11-29T01:46:15.411Z,56.11
2022-11-29T01:47:15.377Z,46.11
2022-11-29T01:48:15.374Z,43.31
2022-11-29T01:49:15.392Z,51.68
2022-11-29T01:50:15.362Z,58.18
2022-11-29T01:51:15.350Z,48.29
2022-11-29T01:52:15.339Z,46.45
2022-11-29T01:53:15.340Z,47.66
2022-11-29T01:54:15.363Z,59.92
2022-11-29T01:55:15.327Z,47.87
2022-11-29T01:56:15.332Z,46.56
2022-11-29T01:57:15.301Z,47.46
2022-11-29T01:58:15.326Z,48.32
2022-11-29T01:59:15.350Z,58.83
2022-11-29T02:00:15.273Z,49.10
2022-11-29T02:01:15.321Z,48.73
2022-11-29T02:02:15.293Z,50.56
2022-11-29T02:03:15.277Z,47.99
2022-11-29T02:04:15.247Z,43.91
2022-11-29T02:05:15.281Z,47.89
2022-11-29T02:06:15.246Z,56.22
2022-11-29T02:07:15.268Z,46.50
2022-11-29T02:08:16.223Z,47.49
2022-11-29T02:09:15.207Z,48.20
2022-11-29T02:10:15.227Z,50.43
2022-11-29T02:11:15.202Z,45.37
2022-11-29T02:12:15.189Z,45.52
2022-11-29T02:13:15.180Z,50.84
2022-11-29T02:14:15.159Z,45.06
2022-11-29T02:15:16.195Z,47.91
2022-11-29T02:16:15.178Z,46.84
2022-11-29T02:17:15.147Z,45.71
2022-11-29T02:18:15.161Z,45.23
2022-11-29T02:19:15.135Z,48.44
2022-11-29T02:20:15.184Z,46.06
2022-11-29T02:21:15.124Z,49.41
2022-11-29T02:22:15.111Z,58.86
2022-11-29T02:23:15.109Z,47.53
2022-11-29T02:24:15.102Z,49.55
2022-11-29T02:25:15.117Z,47.73
2022-11-29T02:26:15.094Z,47.07
2022-11-29T02:27:15.103Z,47.79
2022-11-29T02:28:15.066Z,45.50
2022-11-29T02:29:15.050Z,47.75
2022-11-29T02:30:15.076Z,47.87
2022-11-29T02:31:15.064Z,47.71
2022-11-29T02:32:17.842Z,43.50
2022-11-29T02:33:16.845Z,51.73
2022-11-29T02:34:16.850Z,52.97
2022-11-29T02:35:16.858Z,58.93
2022-11-29T02:36:17.846Z,47.40
2022-11-29T02:37:16.070Z,46.95
2022-11-29T02:38:16.835Z,55.07
2022-11-29T02:39:15.858Z,46.44
2022-11-29T02:40:16.849Z,55.29
2022-11-29T02:41:17.348Z,52.77
2022-11-29T02:42:17.898Z,52.98
2022-11-29T02:43:15.834Z,44.99
2022-11-29T02:44:16.839Z,46.36
2022-11-29T02:45:15.836Z,46.49
2022-11-29T02:46:15.099Z,47.94
2022-11-29T02:47:16.846Z,44.70
2022-11-29T02:48:15.889Z,42.10
2022-11-29T02:49:14.947Z,49.61
2022-11-29T02:50:14.955Z,47.86
2022-11-29T02:51:16.336Z,48.55
2022-11-29T02:52:16.838Z,45.80
2022-11-29T02:53:16.339Z,44.03
2022-11-29T02:54:15.544Z,46.04
2022-11-29T02:55:15.607Z,42.14
2022-11-29T02:56:15.472Z,45.16
2022-11-29T02:57:19.339Z,49.83
2022-11-29T02:58:14.914Z,49.68
2022-11-29T02:59:16.338Z,43.84
2022-11-29T03:00:16.415Z,55.68
2022-11-29T03:01:15.917Z,46.46
2022-11-29T03:02:14.930Z,42.85
2022-11-29T03:03:15.873Z,43.21
2022-11-29T03:04:14.792Z,43.97
2022-11-29T03:05:14.801Z,49.93
2022-11-29T03:06:14.804Z,54.77
2022-11-29T03:07:14.831Z,44.72
2022-11-29T03:08:14.773Z,42.23
2022-11-29T03:09:14.765Z,52.51
2022-11-29T03:10:14.756Z,48.80
2022-11-29T03:11:14.775Z,55.94
2022-11-29T03:12:14.751Z,43.05
2022-11-29T03:13:14.733Z,44.92
2022-11-29T03:14:14.732Z,45.26
2022-11-29T03:15:14.720Z,44.27
2022-11-29T03:16:14.803Z,43.07
2022-11-29T03:17:14.702Z,43.26
2022-11-29T03:18:14.688Z,46.55
2022-11-29T03:19:14.686Z,45.42
2022-11-29T03:20:14.688Z,44.43
2022-11-29T03:21:14.739Z,51.39
2022-11-29T03:22:14.664Z,43.76
2022-11-29T03:23:14.669Z,46.93
2022-11-29T03:24:14.648Z,44.83
2022-11-29T03:25:14.635Z,44.16
2022-11-29T03:26:14.661Z,49.54
2022-11-29T03:27:14.633Z,58.68
2022-11-29T03:28:14.619Z,47.31
2022-11-29T03:29:14.614Z,48.15
2022-11-29T03:30:14.641Z,53.94
2022-11-29T03:31:14.647Z,44.40
2022-11-29T03:32:14.591Z,51.48
2022-11-29T03:33:14.588Z,47.78
2022-11-29T03:34:14.570Z,46.28
2022-11-29T03:35:14.572Z,43.11
2022-11-29T03:36:14.583Z,47.14
2022-11-29T03:37:14.562Z,48.94
2022-11-29T03:38:14.557Z,49.83
2022-11-29T03:39:14.590Z,53.85
2022-11-29T03:40:14.538Z,44.26
2022-11-29T03:41:14.623Z,43.25
2022-11-29T03:42:14.520Z,48.41
2022-11-29T03:43:14.510Z,42.91
2022-11-29T03:44:14.530Z,47.58
2022-11-29T03:45:14.516Z,43.20
2022-11-29T03:46:14.625Z,47.62
2022-11-29T03:47:14.487Z,47.64
2022-11-29T03:48:14.482Z,49.08
2022-11-29T03:49:14.469Z,57.58
2022-11-29T03:50:14.467Z,41.71
2022-11-29T03:51:14.536Z,50.69
2022-11-29T03:52:14.447Z,53.09
2022-11-29T03:53:14.437Z,49.59
2022-11-29T03:54:14.433Z,49.03
2022-11-29T03:55:14.425Z,43.63
2022-11-29T03:56:14.453Z,59.88
2022-11-29T03:57:14.405Z,44.97
2022-11-29T03:58:14.439Z,48.34
2022-11-29T03:59:14.408Z,52.36
2022-11-29T04:00:14.389Z,43.45
2022-11-29T04:01:14.482Z,47.10
2022-11-29T04:02:14.449Z,52.65
2022-11-29T04:03:14.366Z,46.85
2022-11-29T04:04:14.361Z,50.98
2022-11-29T04:05:14.355Z,52.37
2022-11-29T04:06:14.384Z,53.33
2022-11-29T04:07:14.457Z,53.86
2022-11-29T04:08:14.336Z,54.28
2022-11-29T04:09:14.326Z,51.26
2022-11-29T04:10:14.317Z,51.29
2022-11-29T04:11:14.307Z,52.25
2022-11-29T04:12:14.323Z,54.74
2022-11-29T04:13:14.299Z,51.09
2022-11-29T04:14:14.285Z,46.57
2022-11-29T04:15:15.681Z,54.83
2022-11-29T04:16:15.304Z,54.68
2022-11-29T04:17:14.289Z,53.42
2022-11-29T04:18:14.255Z,60.27
2022-11-29T04:19:14.245Z,49.04
2022-11-29T04:20:14.243Z,50.29
2022-11-29T04:21:14.233Z,51.14
2022-11-29T04:22:14.257Z,49.96
2022-11-29T04:23:14.218Z,56.68
2022-11-29T04:24:14.212Z,56.44
2022-11-29T04:25:14.207Z,56.32
2022-11-29T04:26:14.219Z,55.27
2022-11-29T04:27:14.211Z,60.29
2022-11-29T04:28:14.174Z,59.25
2022-11-29T04:29:14.176Z,60.51
2022-11-29T04:30:14.166Z,59.15
2022-11-29T04:31:14.231Z,59.20
2022-11-29T04:32:14.536Z,59.45
2022-11-29T04:33:14.152Z,59.62
2022-11-29T04:34:14.128Z,59.41
2022-11-29T04:35:14.126Z,60.41
2022-11-29T04:36:14.122Z,59.48
2022-11-29T04:37:14.523Z,59.62
2022-11-29T04:38:14.112Z,58.94
2022-11-29T04:39:14.094Z,59.76
2022-11-29T04:40:14.090Z,60.18
2022-11-29T04:41:14.076Z,60.29
2022-11-29T04:42:14.529Z,59.00
2022-11-29T04:43:14.066Z,52.45
2022-11-29T04:44:14.055Z,57.50
2022-11-29T04:45:14.050Z,63.56
2022-11-29T04:46:14.165Z,56.33
2022-11-29T04:47:14.525Z,55.97
2022-11-29T04:48:14.025Z,48.99
2022-11-29T04:49:14.014Z,50.94
2022-11-29T04:50:14.011Z,55.99
2022-11-29T04:51:13.998Z,51.94
2022-11-29T04:52:14.023Z,58.44
2022-11-29T04:53:13.989Z,53.52
2022-11-29T04:54:13.976Z,52.33
2022-11-29T04:55:20.781Z,56.89
2022-11-29T04:56:15.957Z,54.40
2022-11-29T04:57:13.992Z,60.53
2022-11-29T04:58:13.949Z,53.64
2022-11-29T04:59:13.942Z,54.53
2022-11-29T05:00:13.939Z,55.41
2022-11-29T05:01:13.971Z,60.03
2022-11-29T05:02:13.948Z,55.48
2022-11-29T05:03:13.913Z,55.02
2022-11-29T05:04:13.907Z,61.06
2022-11-29T05:05:13.905Z,58.76
2022-11-29T05:06:13.894Z,52.71
2022-11-29T05:07:13.905Z,57.31
2022-11-29T05:08:13.889Z,58.88
2022-11-29T05:09:13.878Z,53.40
2022-11-29T05:10:13.885Z,52.76
2022-11-29T05:11:13.859Z,58.52
2022-11-29T05:12:13.903Z,54.99
2022-11-29T05:13:13.849Z,52.16
2022-11-29T05:14:13.836Z,56.06
2022-11-29T05:15:13.826Z,53.60
2022-11-29T05:16:13.873Z,56.80
2022-11-29T05:17:13.867Z,53.32
2022-11-29T05:18:13.841Z,57.52
2022-11-29T05:19:13.815Z,52.91
2022-11-29T05:20:13.888Z,52.86
2022-11-29T05:21:13.809Z,58.83
2022-11-29T05:22:13.795Z,59.76
2022-11-29T05:23:13.855Z,54.08
2022-11-29T05:24:13.785Z,58.68
2022-11-29T05:25:13.788Z,52.78
2022-11-29T05:26:13.794Z,54.75
2022-11-29T05:27:13.762Z,59.73
2022-11-29T05:28:13.768Z,57.73
2022-11-29T05:29:13.745Z,52.72
2022-11-29T05:30:13.746Z,54.85
2022-11-29T05:31:13.751Z,58.05
2022-11-29T05:32:13.723Z,58.36
2022-11-29T05:33:13.759Z,54.34
2022-11-29T05:34:13.700Z,57.28
2022-11-29T05:35:13.707Z,57.63
2022-11-29T05:36:13.716Z,60.34
2022-11-29T05:37:13.679Z,57.04
2022-11-29T05:38:13.703Z,56.89
2022-11-29T05:39:13.669Z,60.86
2022-11-29T05:40:13.653Z,55.24
2022-11-29T05:41:13.648Z,53.39
2022-11-29T05:42:13.646Z,55.24
2022-11-29T05:43:13.651Z,60.23
2022-11-29T05:44:13.621Z,59.90
2022-11-29T05:45:13.629Z,57.37
2022-11-29T05:46:13.662Z,56.48
2022-11-29T05:47:13.612Z,56.55
2022-11-29T05:48:13.633Z,53.76
2022-11-29T05:49:13.595Z,56.32
2022-11-29T05:50:13.582Z,57.95
2022-11-29T05:51:13.581Z,58.97
2022-11-29T05:52:13.663Z,56.98
2022-11-29T05:53:13.585Z,57.65
2022-11-29T05:54:13.570Z,56.91
2022-11-29T05:55:13.532Z,54.81
2022-11-29T05:56:13.557Z,56.70
2022-11-29T05:57:13.548Z,58.70
2022-11-29T05:58:14.572Z,56.11
2022-11-29T05:59:13.541Z,55.94
2022-11-29T06:00:13.516Z,58.03
2022-11-29T06:01:13.506Z,55.88
2022-11-29T06:02:13.553Z,58.43
2022-11-29T06:03:13.639Z,56.65
2022-11-29T06:04:15.097Z,61.18
2022-11-29T06:05:14.481Z,56.03
2022-11-29T06:06:13.468Z,53.21
2022-11-29T06:07:13.469Z,57.30
2022-11-29T06:08:13.488Z,57.72
2022-11-29T06:09:13.459Z,57.08
2022-11-29T06:10:13.455Z,56.66
2022-11-29T06:11:13.431Z,57.61
2022-11-29T06:12:16.884Z,58.07
2022-11-29T06:13:15.443Z,57.52
2022-11-29T06:14:13.423Z,59.24
2022-11-29T06:15:13.409Z,56.05
2022-11-29T06:16:13.416Z,59.02
2022-11-29T06:17:13.364Z,59.77
2022-11-29T06:18:13.422Z,59.32
2022-11-29T06:19:13.392Z,60.02
2022-11-29T06:20:13.357Z,57.20
2022-11-29T06:21:13.358Z,60.18
2022-11-29T06:22:13.343Z,56.53
2022-11-29T06:23:13.358Z,57.19
2022-11-29T06:24:13.361Z,55.49
2022-11-29T06:25:13.347Z,56.98
2022-11-29T06:26:13.341Z,55.96
2022-11-29T06:27:13.311Z,58.89
2022-11-29T06:28:13.313Z,57.64
2022-11-29T06:29:13.325Z,57.09
2022-11-29T06:30:13.277Z,58.24
2022-11-29T06:31:13.312Z,57.28
2022-11-29T06:32:13.264Z,52.49
2022-11-29T06:35:45.965Z,54.67
2022-11-29T06:36:45.954Z,55.95
2022-11-29T06:37:45.949Z,57.93
2022-11-29T06:38:45.968Z,60.37
2022-11-29T06:39:45.942Z,61.26
2022-11-29T06:40:45.925Z,58.73
2022-11-29T06:41:45.919Z,59.94
2022-11-29T06:42:45.908Z,59.36
2022-11-29T06:43:45.927Z,60.11
2022-11-29T06:44:46.167Z,58.66
2022-11-29T06:45:45.889Z,60.00
2022-11-29T06:46:47.097Z,52.83
2022-11-29T06:47:47.016Z,59.82
2022-11-29T06:48:47.023Z,55.48
2022-11-29T06:49:46.999Z,58.09
2022-11-29T06:50:46.991Z,52.98
2022-11-29T06:51:46.984Z,54.92
2022-11-29T06:52:46.965Z,58.14
2022-11-29T06:53:47.999Z,51.92
2022-11-29T06:54:47.222Z,54.81
2022-11-29T06:55:46.955Z,53.70
2022-11-29T06:56:46.948Z,59.42
2022-11-29T06:57:46.938Z,55.27
2022-11-29T06:58:46.969Z,54.98
2022-11-29T06:59:46.944Z,57.04
2022-11-29T07:00:46.958Z,59.76
2022-11-29T07:01:47.005Z,55.27
2022-11-29T07:02:46.926Z,57.53
2022-11-29T07:03:47.266Z,56.41
2022-11-29T07:04:46.959Z,61.67
2022-11-29T07:05:46.887Z,55.52
2022-11-29T07:06:46.874Z,56.36
2022-11-29T07:07:46.894Z,58.52
2022-11-29T07:08:46.889Z,57.86
2022-11-29T07:09:46.846Z,62.13
2022-11-29T07:10:46.839Z,55.30
2022-11-29T07:11:46.839Z,55.96
2022-11-29T07:12:46.822Z,55.44
2022-11-29T07:13:46.843Z,58.37
2022-11-29T07:14:47.063Z,56.01
2022-11-29T07:15:46.800Z,59.83
2022-11-29T07:16:46.793Z,52.85
2022-11-29T07:17:46.792Z,55.57
2022-11-29T07:18:46.775Z,55.31
2022-11-29T07:19:46.795Z,55.31
2022-11-29T07:20:46.766Z,53.91
2022-11-29T07:21:46.763Z,59.33
2022-11-29T07:22:46.749Z,55.09
2022-11-29T07:23:46.741Z,56.87
2022-11-29T07:24:47.099Z,58.90
2022-11-29T07:25:46.729Z,58.66
2022-11-29T07:26:46.719Z,54.62
2022-11-29T07:27:46.705Z,54.67
2022-11-29T07:28:46.693Z,62.53
2022-11-29T07:29:46.719Z,55.41
2022-11-29T07:30:46.683Z,54.74
2022-11-29T07:31:46.709Z,58.31
2022-11-29T07:32:50.480Z,58.59
2022-11-29T07:33:48.659Z,55.71
2022-11-29T07:34:46.928Z,54.03
2022-11-29T07:35:46.654Z,56.64
2022-11-29T07:36:46.645Z,57.27
2022-11-29T07:37:46.623Z,58.04
2022-11-29T07:38:46.624Z,51.25
2022-11-29T07:39:46.644Z,56.64
2022-11-29T07:40:46.613Z,61.31
2022-11-29T07:41:46.602Z,56.27
2022-11-29T07:42:46.595Z,58.00
2022-11-29T07:43:46.582Z,56.79
2022-11-29T07:44:46.815Z,61.29
2022-11-29T07:45:46.588Z,57.40
2022-11-29T07:46:46.605Z,56.67
2022-11-29T07:47:46.557Z,53.98
2022-11-29T07:48:46.551Z,58.15
2022-11-29T07:49:46.569Z,51.85
2022-11-29T07:50:46.538Z,56.38
2022-11-29T07:51:46.525Z,56.79
2022-11-29T07:52:46.519Z,57.79
2022-11-29T07:53:46.510Z,54.45
2022-11-29T07:54:46.747Z,54.87
2022-11-29T07:55:46.521Z,54.85
2022-11-29T07:56:46.491Z,51.74
2022-11-29T07:57:46.479Z,58.21
2022-11-29T07:58:46.516Z,56.18
2022-11-29T07:59:46.704Z,55.00
2022-11-29T08:00:46.532Z,57.09
2022-11-29T08:01:46.494Z,54.18
2022-11-29T08:02:46.435Z,58.14
2022-11-29T08:03:46.429Z,55.51
2022-11-29T08:04:46.663Z,57.51
2022-11-29T08:05:46.437Z,54.73
2022-11-29T08:06:46.406Z,59.03
2022-11-29T08:07:46.476Z,56.36
2022-11-29T08:08:46.396Z,56.76
2022-11-29T08:09:46.588Z,56.44
2022-11-29T08:10:46.401Z,56.15
2022-11-29T08:11:46.371Z,57.51
2022-11-29T08:12:46.359Z,56.62
2022-11-29T08:13:46.358Z,55.99
2022-11-29T08:14:46.648Z,51.62
2022-11-29T08:15:46.365Z,56.13
2022-11-29T08:16:46.410Z,55.39
2022-11-29T08:17:46.326Z,57.45
2022-11-29T08:18:47.025Z,57.45
2022-11-29T08:19:46.307Z,56.56
2022-11-29T08:20:46.440Z,61.00
2022-11-29T08:21:46.297Z,57.52
2022-11-29T08:22:46.315Z,57.47
2022-11-29T08:23:46.276Z,57.64
2022-11-29T08:24:46.558Z,55.37
2022-11-29T08:25:46.286Z,59.83
2022-11-29T08:26:46.258Z,55.31
2022-11-29T08:27:46.255Z,56.66
2022-11-29T08:28:46.258Z,47.88
2022-11-29T08:29:46.233Z,59.29
2022-11-29T08:30:46.248Z,57.05
2022-11-29T08:31:46.302Z,55.18
2022-11-29T08:32:51.230Z,52.60
2022-11-29T08:33:48.196Z,55.60
2022-11-29T08:34:46.501Z,54.02
2022-11-29T08:35:46.209Z,54.99
2022-11-29T08:36:46.202Z,53.87
2022-11-29T08:37:46.170Z,58.12
2022-11-29T08:38:46.160Z,65.03
2022-11-29T08:39:46.150Z,59.17
2022-11-29T08:40:46.168Z,57.69
2022-11-29T08:41:46.154Z,51.49
2022-11-29T08:42:46.137Z,59.91
2022-11-29T08:43:46.154Z,59.11
2022-11-29T08:44:46.496Z,56.22
2022-11-29T08:45:46.168Z,55.03
2022-11-29T08:46:46.103Z,54.12
2022-11-29T08:47:46.094Z,55.69
2022-11-29T08:48:46.084Z,56.26
2022-11-29T08:49:46.090Z,57.39
2022-11-29T08:50:46.094Z,57.66
2022-11-29T08:51:46.073Z,56.93
2022-11-29T08:52:46.050Z,54.75
2022-11-29T08:53:46.065Z,58.20
2022-11-29T08:54:46.224Z,57.41
2022-11-29T08:55:46.048Z,57.61
2022-11-29T08:57:48.011Z,55.54
2022-11-29T08:58:46.013Z,51.58
2022-11-29T08:59:46.005Z,56.90
2022-11-29T09:00:46.067Z,56.07
2022-11-29T09:01:45.996Z,55.36
2022-11-29T09:02:45.975Z,55.40
2022-11-29T09:03:45.970Z,56.08
2022-11-29T09:04:46.260Z,57.61
2022-11-29T09:05:45.997Z,57.95
2022-11-29T09:06:45.957Z,55.02
2022-11-29T09:07:46.089Z,56.24
2022-11-29T09:08:45.941Z,56.93
2022-11-29T09:09:45.931Z,54.94
2022-11-29T09:10:45.957Z,61.10
2022-11-29T09:11:49.427Z,56.77
2022-11-29T09:12:46.912Z,54.84
2022-11-29T09:13:45.896Z,53.67
2022-11-29T09:14:46.098Z,57.41
2022-11-29T09:15:45.889Z,53.86
2022-11-29T09:16:45.957Z,52.50
2022-11-29T09:17:45.873Z,57.70
2022-11-29T09:18:51.271Z,56.19
2022-11-29T09:19:47.852Z,55.97
2022-11-29T09:20:45.838Z,55.19
2022-11-29T09:21:45.874Z,57.84
2022-11-29T09:22:45.831Z,56.53
2022-11-29T09:23:45.822Z,57.05
2022-11-29T09:24:46.105Z,55.56
2022-11-29T09:25:45.804Z,56.93
2022-11-29T09:26:45.816Z,55.65
2022-11-29T09:27:45.789Z,54.86
2022-11-29T09:28:45.776Z,56.47
2022-11-29T09:29:45.770Z,55.01
2022-11-29T09:30:45.763Z,58.53
2022-11-29T09:31:45.859Z,57.21
2022-11-29T09:32:45.750Z,56.23
2022-11-29T09:33:45.740Z,57.39
2022-11-29T09:34:46.007Z,59.57
2022-11-29T09:35:45.731Z,54.71
2022-11-29T09:36:45.756Z,51.57
2022-11-29T09:37:45.725Z,56.95
2022-11-29T09:38:45.711Z,56.04
2022-11-29T09:39:45.692Z,53.73
2022-11-29T09:40:45.686Z,58.71
2022-11-29T09:41:48.565Z,53.20
2022-11-29T09:42:46.663Z,53.86
2022-11-29T09:43:46.670Z,55.24
2022-11-29T09:44:45.985Z,54.80
2022-11-29T09:45:45.694Z,55.27
2022-11-29T09:46:45.677Z,57.79
2022-11-29T09:47:45.629Z,53.55
2022-11-29T09:48:45.621Z,54.44
2022-11-29T09:49:45.636Z,55.39
2022-11-29T09:50:45.616Z,56.70
2022-11-29T09:51:45.618Z,57.21
2022-11-29T09:52:45.601Z,55.32
2022-11-29T09:53:45.586Z,58.21
2022-11-29T09:54:45.822Z,55.80
2022-11-29T09:55:45.578Z,58.29
2022-11-29T09:56:45.588Z,57.90
2022-11-29T09:57:45.555Z,58.40
2022-11-29T09:58:45.554Z,57.68
2022-11-29T09:59:45.537Z,60.36
2022-11-29T10:00:45.532Z,54.98
2022-11-29T10:01:45.556Z,58.40
2022-11-29T10:02:45.602Z,54.49
2022-11-29T10:03:45.506Z,55.30
2022-11-29T10:04:45.759Z,57.61
2022-11-29T10:05:45.483Z,54.95
2022-11-29T10:06:45.534Z,53.68
2022-11-29T10:07:45.627Z,56.66
2022-11-29T10:08:45.482Z,56.40
2022-11-29T10:09:45.455Z,56.70
2022-11-29T10:10:45.445Z,55.72
2022-11-29T10:11:45.468Z,55.43
2022-11-29T10:12:45.442Z,60.74
2022-11-29T10:13:45.441Z,57.12
2022-11-29T10:14:45.654Z,52.53
2022-11-29T10:15:45.417Z,57.78
2022-11-29T10:16:45.423Z,55.52
2022-11-29T10:17:45.417Z,57.64
2022-11-29T10:18:45.394Z,58.02
2022-11-29T10:19:45.406Z,56.48
2022-11-29T10:20:48.988Z,56.17
2022-11-29T10:21:46.358Z,55.85
2022-11-29T10:22:45.383Z,59.83
2022-11-29T10:23:45.348Z,58.16
2022-11-29T10:24:45.780Z,53.95
2022-11-29T10:25:45.331Z,53.42
2022-11-29T10:26:45.323Z,56.25
2022-11-29T10:27:45.354Z,56.33
2022-11-29T10:28:45.320Z,56.51
2022-11-29T10:29:45.305Z,56.12
2022-11-29T10:30:45.347Z,55.01
2022-11-29T10:31:45.287Z,52.82
2022-11-29T10:32:45.303Z,57.53
2022-11-29T10:33:45.268Z,55.82
2022-11-29T10:34:45.561Z,59.13
2022-11-29T10:35:45.265Z,57.70
2022-11-29T10:36:45.249Z,54.63
2022-11-29T10:38:01.381Z,57.52
2022-11-29T10:38:47.232Z,58.64
2022-11-29T10:39:45.229Z,52.10
2022-11-29T10:40:45.219Z,55.20
2022-11-29T10:41:45.203Z,55.35
2022-11-29T10:42:45.232Z,56.41
2022-11-29T10:43:45.192Z,58.24
2022-11-29T10:44:45.450Z,57.72
2022-11-29T10:45:45.191Z,52.89
2022-11-29T10:46:45.170Z,60.93
2022-11-29T10:47:45.197Z,54.37
2022-11-29T10:48:45.144Z,57.59
2022-11-29T10:49:46.151Z,59.17
2022-11-29T10:50:45.140Z,56.57
2022-11-29T10:51:45.135Z,55.81
2022-11-29T10:52:45.133Z,60.45
2022-11-29T10:53:45.147Z,56.17
2022-11-29T10:54:45.502Z,52.19
2022-11-29T10:55:45.104Z,53.77
2022-11-29T10:56:45.097Z,56.90
2022-11-29T10:57:45.087Z,55.78
2022-11-29T10:58:45.116Z,56.60
2022-11-29T10:59:45.077Z,56.77
2022-11-29T11:00:45.077Z,57.10
2022-11-29T11:01:45.096Z,56.60
2022-11-29T11:02:45.045Z,54.29
2022-11-29T11:03:48.951Z,55.36
2022-11-29T11:04:46.424Z,57.12
2022-11-29T11:05:45.075Z,58.63
2022-11-29T11:06:45.016Z,57.43
2022-11-29T11:07:45.038Z,55.64
2022-11-29T11:08:45.034Z,51.49
2022-11-29T11:09:44.993Z,58.28
2022-11-29T11:10:49.472Z,58.25
2022-11-29T11:11:46.974Z,57.38
2022-11-29T11:12:44.977Z,57.02
2022-11-29T11:13:44.992Z,57.07
2022-11-29T11:14:45.396Z,61.01
2022-11-29T11:15:44.953Z,56.46
2022-11-29T11:16:44.972Z,54.83
2022-11-29T11:17:44.940Z,57.17
2022-11-29T11:18:44.958Z,60.41
2022-11-29T11:19:44.932Z,56.42
2022-11-29T11:20:44.913Z,59.76
2022-11-29T11:21:44.904Z,56.87
2022-11-29T11:22:44.901Z,57.00
2022-11-29T11:23:44.915Z,56.02
2022-11-29T11:24:45.259Z,55.79
2022-11-29T11:25:44.885Z,54.64
2022-11-29T11:26:44.870Z,54.61
2022-11-29T11:27:44.860Z,59.59
2022-11-29T11:28:44.899Z,55.23
2022-11-29T11:29:44.849Z,61.14
2022-11-29T11:30:44.882Z,54.81
2022-11-29T11:31:44.828Z,52.87
2022-11-29T11:32:44.820Z,59.26
2022-11-29T11:33:44.815Z,58.80
2022-11-29T11:34:45.028Z,58.32
2022-11-29T11:35:44.798Z,56.58
2022-11-29T11:36:44.798Z,56.19
2022-11-29T11:37:44.827Z,57.01
2022-11-29T11:38:44.773Z,52.99
2022-11-29T11:39:44.897Z,58.42
2022-11-29T11:40:44.762Z,57.21
2022-11-29T11:41:44.758Z,61.91
2022-11-29T11:42:44.750Z,55.36
2022-11-29T11:43:44.749Z,57.83
2022-11-29T11:44:58.348Z,57.93
2022-11-29T11:45:46.734Z,56.76
2022-11-29T11:46:44.756Z,54.02
2022-11-29T11:47:44.715Z,58.75
2022-11-29T11:48:44.700Z,60.75
2022-11-29T11:49:44.722Z,58.07
2022-11-29T11:50:44.684Z,58.30
2022-11-29T11:51:44.682Z,58.57
2022-11-29T11:52:50.103Z,58.40
2022-11-29T11:53:46.669Z,57.27
2022-11-29T11:54:44.960Z,54.88
2022-11-29T11:55:44.647Z,55.09
2022-11-29T11:56:44.641Z,57.21
2022-11-29T11:57:44.628Z,58.09
2022-11-29T11:58:44.611Z,60.38
2022-11-29T11:59:44.642Z,57.75
2022-11-29T12:01:46.594Z,58.51
2022-11-29T12:02:44.663Z,56.52
2022-11-29T12:03:44.625Z,57.14
2022-11-29T12:04:44.840Z,59.00
2022-11-29T12:05:46.282Z,59.17
2022-11-29T12:06:45.554Z,58.62
2022-11-29T12:08:07.467Z,59.17
2022-11-29T12:08:46.581Z,59.48
2022-11-29T12:09:44.543Z,58.80
2022-11-29T12:10:44.555Z,60.73
2022-11-29T12:11:44.519Z,58.57
2022-11-29T12:12:44.511Z,58.27
2022-11-29T12:13:44.504Z,58.08
2022-11-29T12:14:44.756Z,58.17
2022-11-29T12:15:44.535Z,58.83
2022-11-29T12:16:44.485Z,56.51
2022-11-29T12:17:44.510Z,52.04
2022-11-29T12:18:44.469Z,55.30
2022-11-29T12:19:44.479Z,59.91
2022-11-29T12:20:44.489Z,61.18
2022-11-29T12:21:44.455Z,57.79
2022-11-29T12:22:48.304Z,56.17
2022-11-29T12:23:45.437Z,57.37
2022-11-29T12:24:44.681Z,56.67
2022-11-29T12:25:44.518Z,56.34
2022-11-29T12:26:59.914Z,58.59
2022-11-29T12:27:46.405Z,57.39
2022-11-29T12:28:44.397Z,56.01
2022-11-29T12:29:44.383Z,53.76
2022-11-29T12:30:44.450Z,59.02
2022-11-29T12:31:44.386Z,57.77
2022-11-29T12:32:44.361Z,56.00
2022-11-29T12:34:22.053Z,57.09
2022-11-29T12:34:45.741Z,59.40
2022-11-29T12:35:44.364Z,58.66
2022-11-29T12:36:44.348Z,59.45
2022-11-29T12:37:44.328Z,57.56
2022-11-29T12:38:44.328Z,59.31
2022-11-29T12:39:44.327Z,57.11
2022-11-29T12:40:44.347Z,55.56
2022-11-29T12:41:47.190Z,58.13
2022-11-29T12:42:45.306Z,57.63
2022-11-29T12:43:44.306Z,57.73
2022-11-29T12:44:44.731Z,59.57
2022-11-29T12:45:44.332Z,55.18
2022-11-29T12:46:44.312Z,58.90
2022-11-29T12:47:50.321Z,57.57
2022-11-29T12:48:46.272Z,53.14
2022-11-29T12:49:44.262Z,54.61
2022-11-29T12:50:44.279Z,54.80
2022-11-29T12:51:45.235Z,58.86
2022-11-29T12:52:44.239Z,56.63
2022-11-29T12:53:44.268Z,55.62
2022-11-29T12:54:44.537Z,56.61
2022-11-29T12:55:44.236Z,59.37
2022-11-29T12:56:44.214Z,56.28
2022-11-29T12:57:44.273Z,55.73
2022-11-29T12:58:46.116Z,57.59
2022-11-29T12:59:45.196Z,56.09